Wednesday, December 12, 2018, 11:30 PM EST
Back to Local

KFIT, Fitchburg, Fitchburg Municipal Airport

Location: Leominster, MA, United States Lat: 42.552
Local Time: 11:30 PM EST ( 4:30 GMT) Lon: -71.756
Time Zone: US/Eastern Elev: 347 ft

Show me the last for .
Show Decoded

2018-12-12 22:52 METAR KFIT 130352Z AUTO 32004KT 10SM CLR M11/M14 A3033 RMK AO2 SLP276 T11061139
                 =
2018-12-12 21:52 METAR KFIT 130252Z AUTO 02003KT 10SM CLR M07/M14 A3030 RMK AO2 SLP268 T10721144
                 53025 =
2018-12-12 20:52 METAR KFIT 130152Z AUTO 36003KT 10SM CLR M07/M14 A3027 RMK AO2 SLP258 T10671144
                 =
2018-12-12 19:52 METAR KFIT 130052Z AUTO 35004KT 10SM CLR M05/M13 A3024 RMK AO2 SLP247 T10501128
                 =
2018-12-12 18:52 METAR KFIT 122352Z AUTO 33006KT 10SM CLR M05/M11 A3023 RMK AO2 SLP242 T10501111
                 10017 21050 51036 =
2018-12-12 17:52 METAR KFIT 122252Z AUTO 29008KT 10SM CLR M03/M11 A3020 RMK AO2 SLP232 T10331106
                 =
2018-12-12 16:52 METAR KFIT 122152Z AUTO 35010KT 10SM CLR M02/M11 A3016 RMK AO2 SLP217 T10221111
                 =
2018-12-12 15:52 METAR KFIT 122052Z AUTO 31010KT 10SM CLR M01/M11 A3012 RMK AO2 SLP205 T10111106
                 53023 =
2018-12-12 14:52 METAR KFIT 121952Z AUTO 34013KT 10SM FEW048 01/M11 A3009 RMK AO2 SLP193
                 T00061106 =
2018-12-12 13:52 METAR KFIT 121852Z AUTO 32012G16KT 10SM BKN047 01/M10 A3007 RMK AO2 SLP186
                 T00111100 =
2018-12-12 12:52 METAR KFIT 121752Z AUTO 31012KT 10SM SCT049 01/M09 A3005 RMK AO2 SLP181
                 T00061094 10017 21033 51008 =
2018-12-12 11:52 METAR KFIT 121652Z AUTO 34016G23KT 10SM SCT050 00/M11 A3005 RMK AO2 SLP181
                 T00001106 =
2018-12-12 10:52 METAR KFIT 121552Z AUTO 31015G20KT 10SM FEW046 01/M09 A3004 RMK AO2 SLP178
                 T00111089 =
2018-12-12 09:52 METAR KFIT 121452Z AUTO 33012KT 10SM CLR 00/M08 A3003 RMK AO2 SLP173 T00001078
                 51019 =
2018-12-12 08:52 METAR KFIT 121352Z AUTO 31014KT 10SM CLR M02/M08 A3001 RMK AO2 SLP167 T10171078
                 =
2018-12-12 07:52 METAR KFIT 121252Z AUTO 33007KT 10SM OVC070 M03/M08 A2999 RMK AO2 SLP160
                 T10281078 =
2018-12-12 06:52 METAR KFIT 121152Z AUTO 30006KT 10SM OVC070 M03/M08 A2997 RMK AO2 SLP154
                 T10331083 11028 21061 53022 =
2018-12-12 05:52 METAR KFIT 121052Z AUTO 33005KT 10SM SCT050 OVC080 M04/M09 A2994 RMK AO2 SLP146
                 T10391089 =
2018-12-12 04:52 METAR KFIT 120952Z AUTO 31005KT 10SM OVC075 M04/M09 A2993 RMK AO2 SLP139
                 T10391094 =
2018-12-12 03:52 METAR KFIT 120852Z AUTO 31003KT 10SM FEW065 BKN080 M05/M09 A2990 RMK AO2 SLP131
                 T10501094 51005 =
2018-12-12 02:52 METAR KFIT 120752Z AUTO 31003KT 10SM CLR M05/M10 A2990 RMK AO2 SLP131 T10501100
                 =
2018-12-12 01:52 METAR KFIT 120652Z AUTO 32009KT 10SM CLR M03/M09 A2990 RMK AO2 SLP129 T10331094
                 =
2018-12-12 00:52 METAR KFIT 120552Z AUTO 31006KT 10SM BKN050 M03/M09 A2989 RMK AO2 SLP127
                 T10281089 11017 21028 56014 =
2018-12-11 23:52 METAR KFIT 120452Z AUTO 35003KT 10SM BKN041 OVC050 M02/M08 A2990 RMK AO2 SLP129
                 T10221083 400171122 =

Support USWX by starting your Amazon purchase here.